Terminal Aerodrome Forecast
Issued by NWS

Home | Current Version | Previous Version | Text Only | Print | Product List | Glossary On
Versions: 1 2 3 4 5 6 7 8 9 10 11 12 13 14 15 16 17
877
FTUS45 KRIW 171130
TAFCPR
TAF
KCPR 171130Z 1712/1812 VRB03KT 3SM BR VCFG OVC003
     FM171400 22006KT P6SM BCFG SCT004 BKN008
     FM171500 22007KT P6SM FEW010 SCT150
     FM171900 25014G22KT P6SM SCT120 BKN200
     FM180100 23008KT P6SM FEW120=

USA.gov is the U.S. government's official web portal to all federal, state and local government web resources and services.